Time;durP1;ratioP1;P1;durP2;ratioP2;P2;SDS_P1;SDS_P2;PMS_P1;PMS_P2;Temp;Humidity;BMP_temperature;BMP_pressure;BME280_temperature;BME280_humidity;BME280_pressure;Samples;Min_cycle;Max_cycle;Signal;HPM_P1;HPM_P2
2021/07/25 00:01:29;;;;;;;70.43;48.77;;;18.30;99.90;;;;;;4975746;28;20254;-73
2021/07/25 00:03:54;;;;;;;72.20;48.67;;;18.30;99.90;;;;;;4975427;28;20206;-73
2021/07/25 00:06:20;;;;;;;69.40;48.73;;;18.30;99.90;;;;;;4975559;28;20644;-73
2021/07/25 00:08:45;;;;;;;64.83;47.13;;;18.20;99.90;;;;;;4991611;28;20278;-74
2021/07/25 00:11:13;;;;;;;66.13;48.17;;;18.20;99.90;;;;;;4988447;28;20173;-73
2021/07/25 00:13:40;;;;;;;70.83;48.37;;;18.20;99.90;;;;;;4988297;28;20181;-74
2021/07/25 00:16:09;;;;;;;67.17;48.17;;;18.20;99.90;;;;;;4988178;28;20256;-73
2021/07/25 00:18:34;;;;;;;64.70;47.03;;;18.20;99.90;;;;;;4988321;28;20744;-73
2021/07/25 00:21:00;;;;;;;68.97;48.57;;;18.20;99.90;;;;;;4971963;28;20264;-73
2021/07/25 00:23:26;;;;;;;67.17;48.70;;;18.20;99.90;;;;;;4972015;28;20244;-73
2021/07/25 00:25:54;;;;;;;70.90;49.67;;;18.20;99.90;;;;;;4971994;28;20192;-73
2021/07/25 00:28:20;;;;;;;66.03;48.67;;;18.20;99.90;;;;;;4972194;28;20200;-73
2021/07/25 00:30:46;;;;;;;71.67;49.50;;;18.30;99.90;;;;;;4955712;28;20223;-74
2021/07/25 00:33:11;;;;;;;68.37;48.23;;;18.20;99.90;;;;;;4972087;28;20230;-73
2021/07/25 00:35:37;;;;;;;67.37;48.73;;;18.20;99.90;;;;;;4971950;28;20208;-73
2021/07/25 00:38:03;;;;;;;66.87;48.60;;;18.20;99.90;;;;;;4972004;28;20193;-73
2021/07/25 00:40:42;;;;;;;69.33;48.30;;;18.20;99.90;;;;;;4971738;28;20187;-74
2021/07/25 00:43:08;;;;;;;60.47;44.80;;;18.20;99.90;;;;;;4988008;28;20707;-73
2021/07/25 00:45:34;;;;;;;65.10;45.90;;;18.20;99.90;;;;;;4987895;28;20216;-74
2021/07/25 00:48:00;;;;;;;62.50;44.43;;;18.30;99.90;;;;;;4971899;28;20624;-73
2021/07/25 00:50:25;;;;;;;68.90;48.33;;;18.20;99.90;;;;;;4971714;28;20173;-73
2021/07/25 00:52:51;;;;;;;65.50;45.77;;;18.20;99.90;;;;;;4955678;28;20602;-73
2021/07/25 00:55:17;;;;;;;77.67;48.30;;;18.20;99.90;;;;;;4971617;28;20300;-74
2021/07/25 00:57:42;;;;;;;60.43;45.73;;;18.30;99.90;;;;;;4988011;28;20181;-73
2021/07/25 01:00:13;;;;;;;63.70;45.23;;;18.20;99.90;;;;;;4971545;28;20278;-73
2021/07/25 01:03:00;;;;;;;63.30;46.60;;;18.20;99.90;;;;;;4956189;28;20224;-74
2021/07/25 01:05:40;;;;;;;61.47;44.23;;;18.20;99.90;;;;;;4972461;28;20196;-72
2021/07/25 01:08:33;;;;;;;65.93;44.63;;;18.20;99.90;;;;;;4983160;28;20235;-73
2021/07/25 01:10:58;;;;;;;63.83;46.27;;;18.20;99.90;;;;;;4995955;28;20246;-73
2021/07/25 01:13:27;;;;;;;64.47;45.53;;;18.10;99.90;;;;;;4962630;28;20663;-73
2021/07/25 01:15:53;;;;;;;64.43;44.03;;;18.10;99.90;;;;;;4978633;28;20207;-74
2021/07/25 01:18:19;;;;;;;63.57;45.17;;;18.10;99.90;;;;;;4978688;28;20187;-73
2021/07/25 01:20:44;;;;;;;65.00;45.67;;;18.00;99.90;;;;;;4994480;28;20188;-73
2021/07/25 01:23:10;;;;;;;66.13;45.80;;;18.00;99.90;;;;;;4978392;28;20203;-73
2021/07/25 01:25:36;;;;;;;66.70;44.93;;;18.00;99.90;;;;;;4978431;28;20200;-73
2021/07/25 01:28:14;;;;;;;71.07;46.63;;;18.00;99.90;;;;;;4962454;28;20216;-74
2021/07/25 01:30:41;;;;;;;66.10;45.80;;;17.90;99.90;;;;;;4994584;28;20161;-73
2021/07/25 01:33:11;;;;;;;64.53;44.23;;;17.90;99.90;;;;;;4994531;28;20207;-73
2021/07/25 01:35:37;;;;;;;60.63;43.77;;;17.80;99.90;;;;;;4978131;28;20204;-73
2021/07/25 01:38:03;;;;;;;65.83;45.47;;;17.80;99.90;;;;;;4978375;28;20207;-73
2021/07/25 01:40:28;;;;;;;64.13;41.97;;;17.80;99.90;;;;;;4967369;28;20212;-73
2021/07/25 01:42:55;;;;;;;67.20;44.53;;;17.80;99.90;;;;;;4991173;28;20181;-74
2021/07/25 01:45:21;;;;;;;65.93;42.60;;;17.80;99.90;;;;;;5002550;23;20323;-72
2021/07/25 01:47:46;;;;;;;67.17;43.97;;;17.70;99.90;;;;;;4957882;28;20276;-72
2021/07/25 01:50:13;;;;;;;64.73;43.50;;;17.70;99.90;;;;;;4958689;28;20204;-73
2021/07/25 01:52:39;;;;;;;60.40;42.57;;;17.70;99.90;;;;;;4975275;28;20535;-72
2021/07/25 01:55:05;;;;;;;59.87;43.17;;;17.70;99.90;;;;;;4974982;28;20280;-72
2021/07/25 01:57:30;;;;;;;64.73;44.03;;;17.60;99.90;;;;;;4958748;28;20188;-72
2021/07/25 01:59:56;;;;;;;62.03;42.80;;;17.60;99.90;;;;;;4975868;28;20173;-72
2021/07/25 02:02:21;;;;;;;62.60;44.23;;;17.60;99.90;;;;;;4975904;28;20699;-72
2021/07/25 02:04:47;;;;;;;66.77;44.07;;;17.60;99.90;;;;;;4975711;28;20757;-73
2021/07/25 02:07:13;;;;;;;65.57;44.03;;;17.60;99.90;;;;;;4978720;28;20184;-72
2021/07/25 02:09:38;;;;;;;68.80;44.57;;;17.60;99.90;;;;;;4975668;28;20260;-72
2021/07/25 02:12:05;;;;;;;69.80;43.40;;;17.60;99.90;;;;;;4974585;28;20640;-72
2021/07/25 02:14:31;;;;;;;64.80;43.73;;;17.60;99.90;;;;;;4974240;28;20545;-72
2021/07/25 02:16:57;;;;;;;61.47;43.60;;;17.70;99.90;;;;;;4975429;28;20169;-72
2021/07/25 02:19:22;;;;;;;60.50;43.23;;;17.60;99.90;;;;;;4974354;28;20554;-72
2021/07/25 02:21:48;;;;;;;69.03;44.07;;;17.60;99.90;;;;;;4974532;28;20182;-72
2021/07/25 02:24:13;;;;;;;57.73;41.23;;;17.60;99.90;;;;;;4957723;28;20203;-72
2021/07/25 02:26:39;;;;;;;64.77;42.53;;;17.60;99.90;;;;;;4975506;28;20188;-72
2021/07/25 02:29:04;;;;;;;58.67;42.20;;;17.60;99.90;;;;;;4974166;28;20249;-72
2021/07/25 02:31:30;;;;;;;56.63;40.20;;;17.60;99.90;;;;;;4974288;28;20671;-72
2021/07/25 02:33:55;;;;;;;59.90;40.73;;;17.70;99.90;;;;;;4957782;28;20668;-72
2021/07/25 02:36:21;;;;;;;58.33;41.03;;;17.60;99.90;;;;;;4957855;28;20684;-72
2021/07/25 02:38:47;;;;;;;61.00;40.87;;;17.60;99.90;;;;;;4975130;28;20609;-72
2021/07/25 02:41:12;;;;;;;62.83;40.77;;;17.60;99.90;;;;;;4958668;28;20235;-72
2021/07/25 02:43:38;;;;;;;63.73;41.90;;;17.50;99.90;;;;;;4957547;28;20193;-72
2021/07/25 02:46:03;;;;;;;66.97;41.30;;;17.50;99.90;;;;;;4957707;28;20204;-72
2021/07/25 02:48:29;;;;;;;58.07;40.63;;;17.50;99.90;;;;;;4957790;28;20177;-72
2021/07/25 02:50:58;;;;;;;53.90;39.53;;;17.50;99.90;;;;;;4957673;28;20173;-72
2021/07/25 02:53:24;;;;;;;67.80;41.20;;;17.50;99.90;;;;;;4974123;28;20180;-72
2021/07/25 02:55:50;;;;;;;59.47;39.87;;;17.60;99.90;;;;;;4973542;28;20227;-72
2021/07/25 02:58:15;;;;;;;61.50;40.10;;;17.50;99.90;;;;;;4973095;28;20219;-72
2021/07/25 03:00:41;;;;;;;57.97;40.43;;;17.50;99.90;;;;;;4973256;28;20189;-72
2021/07/25 03:03:06;;;;;;;59.80;40.60;;;17.50;99.90;;;;;;4990215;28;20204;-72
2021/07/25 03:05:32;;;;;;;56.67;40.63;;;17.50;99.90;;;;;;4974047;28;20197;-72
2021/07/25 03:07:57;;;;;;;65.40;40.73;;;17.50;99.90;;;;;;4957507;28;20240;-72
2021/07/25 03:10:23;;;;;;;57.67;38.70;;;17.40;99.90;;;;;;4974583;28;20644;-72
2021/07/25 03:12:48;;;;;;;57.97;40.00;;;17.40;99.90;;;;;;4973254;28;20625;-72
2021/07/25 03:15:14;;;;;;;61.33;40.47;;;17.40;99.90;;;;;;4957329;28;20189;-72
2021/07/25 03:17:40;;;;;;;63.90;41.43;;;17.40;99.90;;;;;;4957343;28;20173;-72
2021/07/25 03:20:06;;;;;;;61.37;39.80;;;17.40;99.90;;;;;;4972911;28;20184;-72
2021/07/25 03:22:32;;;;;;;58.33;39.20;;;17.30;99.90;;;;;;4973390;28;20179;-72
2021/07/25 03:24:57;;;;;;;63.43;41.30;;;17.30;99.90;;;;;;4957021;28;20320;-72
2021/07/25 03:27:23;;;;;;;59.17;39.47;;;17.30;99.90;;;;;;4956853;28;20208;-72
2021/07/25 03:29:48;;;;;;;57.70;40.47;;;17.30;99.90;;;;;;4972345;28;20176;-72
2021/07/25 03:32:18;;;;;;;51.93;37.33;;;17.20;99.90;;;;;;4974005;28;20581;-72
2021/07/25 03:34:44;;;;;;;54.20;36.10;;;17.20;99.90;;;;;;4972936;28;20292;-72
2021/07/25 03:37:10;;;;;;;49.70;36.43;;;17.20;99.90;;;;;;4972953;28;20173;-72
2021/07/25 03:39:35;;;;;;;52.00;38.93;;;17.20;99.90;;;;;;4956655;28;20177;-72
2021/07/25 03:42:01;;;;;;;54.07;37.37;;;17.10;99.90;;;;;;4972734;28;20192;-73
2021/07/25 03:44:27;;;;;;;53.40;37.07;;;17.10;99.90;;;;;;4972501;28;20204;-72
2021/07/25 03:46:53;;;;;;;56.57;35.80;;;17.10;99.90;;;;;;4956795;28;20269;-72
2021/07/25 03:49:18;;;;;;;54.43;36.20;;;17.10;99.90;;;;;;4972630;28;20177;-72
2021/07/25 03:51:44;;;;;;;54.53;36.60;;;17.10;99.90;;;;;;4956684;28;20587;-72
2021/07/25 03:54:09;;;;;;;52.10;34.87;;;17.10;99.90;;;;;;4956688;28;20259;-72
2021/07/25 03:56:35;;;;;;;50.53;35.83;;;17.00;99.90;;;;;;4972523;28;20208;-72
2021/07/25 03:59:01;;;;;;;70.47;38.60;;;17.00;99.90;;;;;;4972455;28;20177;-72
2021/07/25 04:01:26;;;;;;;58.00;36.63;;;17.00;99.90;;;;;;4956528;28;20208;-72
2021/07/25 04:03:52;;;;;;;51.80;36.10;;;17.00;99.90;;;;;;4956554;28;20291;-72
2021/07/25 04:06:17;;;;;;;53.03;35.67;;;17.00;99.90;;;;;;4973665;28;20248;-72
2021/07/25 04:08:43;;;;;;;51.20;35.17;;;17.10;99.90;;;;;;4972182;28;20181;-72
2021/07/25 04:11:09;;;;;;;55.70;36.83;;;17.10;99.90;;;;;;4972384;28;20184;-72
2021/07/25 04:13:34;;;;;;;53.80;37.07;;;17.10;99.90;;;;;;4972270;28;20216;-72
2021/07/25 04:16:00;;;;;;;51.20;35.50;;;17.10;99.90;;;;;;4956318;28;20204;-72
2021/07/25 04:18:25;;;;;;;46.67;34.80;;;17.10;99.90;;;;;;4956163;28;20597;-72
2021/07/25 04:20:51;;;;;;;49.17;33.90;;;17.10;99.90;;;;;;4956026;28;20263;-72
2021/07/25 04:23:17;;;;;;;45.53;32.57;;;17.20;99.90;;;;;;4956034;28;20324;-72
2021/07/25 04:25:42;;;;;;;48.00;33.13;;;17.20;99.90;;;;;;4956147;28;20209;-72
2021/07/25 04:28:08;;;;;;;46.57;32.77;;;17.20;99.90;;;;;;4956118;28;20185;-72
2021/07/25 04:30:34;;;;;;;49.13;32.97;;;17.20;99.90;;;;;;4972071;28;20176;-72
2021/07/25 04:33:03;;;;;;;51.43;34.73;;;17.20;99.90;;;;;;4956039;28;20192;-72
2021/07/25 04:35:31;;;;;;;45.27;31.63;;;17.20;99.90;;;;;;4972198;28;20235;-72
2021/07/25 04:37:57;;;;;;;41.30;31.03;;;17.20;99.90;;;;;;4972184;28;20552;-72
2021/07/25 04:40:24;;;;;;;50.77;33.87;;;17.30;99.90;;;;;;4975435;28;20173;-72
2021/07/25 04:42:53;;;;;;;44.70;31.27;;;17.30;99.90;;;;;;4960179;28;20173;-72
2021/07/25 04:45:44;;;;;;;42.97;31.50;;;17.40;99.90;;;;;;4975666;28;20214;-72
2021/07/25 04:48:44;;;;;;;39.90;29.67;;;17.30;99.90;;;;;;4977117;28;20176;-72
2021/07/25 04:51:10;;;;;;;41.67;29.20;;;17.50;99.90;;;;;;4975832;28;20173;-72
2021/07/25 04:53:40;;;;;;;38.40;28.83;;;17.50;99.90;;;;;;4959522;28;20181;-72
2021/07/25 04:56:08;;;;;;;39.83;28.87;;;17.40;99.90;;;;;;4975798;28;20574;-72
2021/07/25 04:58:51;;;;;;;37.37;28.70;;;17.60;99.90;;;;;;4959760;28;20212;-72
2021/07/25 05:01:22;;;;;;;39.17;29.77;;;17.60;99.90;;;;;;4960974;28;20188;-72
2021/07/25 05:03:48;;;;;;;37.73;28.17;;;17.60;99.90;;;;;;4959919;28;20235;-72
2021/07/25 05:06:14;;;;;;;38.30;27.97;;;17.70;99.90;;;;;;4940774;28;20784;-72
2021/07/25 05:08:40;;;;;;;37.30;28.23;;;17.70;99.90;;;;;;4956243;29;20645;-72
2021/07/25 05:11:19;;;;;;;37.20;27.97;;;17.80;99.90;;;;;;4956419;29;20193;-72
2021/07/25 05:13:47;;;;;;;41.73;28.57;;;17.80;99.90;;;;;;4940241;29;20182;-72
2021/07/25 05:16:26;;;;;;;39.80;27.97;;;17.90;99.90;;;;;;4956198;29;20257;-72
2021/07/25 05:19:11;;;;;;;37.40;27.40;;;17.90;99.90;;;;;;4940398;29;20170;-72
2021/07/25 05:21:42;;;;;;;38.77;27.27;;;18.00;99.90;;;;;;4972244;28;20193;-72
2021/07/25 05:24:08;;;;;;;37.80;28.10;;;18.00;99.90;;;;;;4980295;28;20347;-72
2021/07/25 05:26:35;;;;;;;34.40;26.97;;;18.00;99.90;;;;;;4956152;29;20671;-72
2021/07/25 05:29:00;;;;;;;40.07;27.43;;;18.10;99.90;;;;;;4958896;28;20186;-72
2021/07/25 05:31:35;;;;;;;43.23;27.93;;;18.10;99.90;;;;;;4940214;29;20527;-72
2021/07/25 05:34:02;;;;;;;37.90;27.80;;;18.20;99.90;;;;;;4940304;29;20240;-72
2021/07/25 05:36:28;;;;;;;37.17;27.47;;;18.30;99.90;;;;;;4940798;29;20201;-72
2021/07/25 05:38:53;;;;;;;35.83;27.23;;;18.40;99.90;;;;;;4955856;28;20719;-72
2021/07/25 05:41:19;;;;;;;39.97;28.57;;;18.40;99.90;;;;;;4966031;28;20591;-72
2021/07/25 05:43:45;;;;;;;36.23;27.43;;;18.50;99.90;;;;;;4958858;28;20204;-72
2021/07/25 05:46:10;;;;;;;37.03;26.77;;;18.50;99.90;;;;;;4958661;28;20220;-72
2021/07/25 05:48:36;;;;;;;34.77;26.87;;;18.70;99.90;;;;;;4958788;28;20204;-72
2021/07/25 05:51:03;;;;;;;33.50;26.27;;;18.70;99.90;;;;;;4974138;28;20653;-72
2021/07/25 05:53:31;;;;;;;31.30;24.47;;;19.00;99.90;;;;;;4974743;28;20181;-72
2021/07/25 05:55:57;;;;;;;29.60;23.73;;;19.60;99.90;;;;;;4955359;28;20217;-72
2021/07/25 05:58:22;;;;;;;34.83;23.80;;;20.00;99.90;;;;;;4987705;28;20178;-72
2021/07/25 06:00:48;;;;;;;30.33;22.97;;;20.40;99.90;;;;;;4987491;28;20177;-72
2021/07/25 06:03:14;;;;;;;28.23;20.53;;;20.70;99.90;;;;;;4956642;28;20261;-72
2021/07/25 06:05:39;;;;;;;27.53;21.87;;;20.90;99.90;;;;;;4987753;28;20259;-72
2021/07/25 06:08:08;;;;;;;29.07;21.47;;;21.20;99.90;;;;;;4971907;28;20174;-72
2021/07/25 06:10:35;;;;;;;32.83;20.50;;;21.40;99.90;;;;;;4971285;28;20259;-72
2021/07/25 06:13:02;;;;;;;23.80;19.47;;;21.50;99.90;;;;;;4955596;28;20256;-72
2021/07/25 06:15:28;;;;;;;21.23;17.50;;;22.10;99.90;;;;;;4971276;28;20216;-73
2021/07/25 06:17:54;;;;;;;24.03;18.73;;;22.60;99.90;;;;;;4987401;28;20178;-72
2021/07/25 06:20:20;;;;;;;25.43;17.43;;;23.40;99.90;;;;;;4971288;28;20182;-72
2021/07/25 06:22:47;;;;;;;19.63;16.73;;;24.00;99.90;;;;;;4987442;28;20178;-73
2021/07/25 06:25:14;;;;;;;20.25;17.05;;;24.50;99.90;;;;;;4970972;28;20220;-72
2021/07/25 06:27:40;;;;;;;20.80;16.30;;;24.50;99.90;;;;;;4971079;28;20181;-72
2021/07/25 06:30:06;;;;;;;22.25;16.23;;;24.20;99.90;;;;;;4970751;28;20268;-73
2021/07/25 06:32:32;;;;;;;21.33;16.47;;;23.80;99.90;;;;;;4971003;28;20213;-73
2021/07/25 06:34:57;;;;;;;24.85;16.95;;;23.30;99.90;;;;;;4970699;28;20248;-73
2021/07/25 06:37:23;;;;;;;24.98;18.98;;;22.90;99.90;;;;;;4986894;28;20182;-73
2021/07/25 06:39:48;;;;;;;23.00;17.92;;;22.80;99.90;;;;;;4970412;28;20181;-73
2021/07/25 06:42:14;;;;;;;19.90;17.20;;;22.60;99.90;;;;;;4986987;28;20190;-72
2021/07/25 06:44:39;;;;;;;22.47;17.80;;;22.60;99.90;;;;;;4970286;28;20288;-72
2021/07/25 06:47:05;;;;;;;22.67;18.90;;;22.60;99.90;;;;;;4986801;28;20181;-72
2021/07/25 06:49:30;;;;;;;19.27;17.17;;;22.70;99.90;;;;;;4955610;28;20174;-72
2021/07/25 06:51:56;;;;;;;26.33;19.13;;;22.90;99.90;;;;;;4955299;28;20186;-72
2021/07/25 06:54:21;;;;;;;23.97;18.40;;;23.10;99.90;;;;;;4986597;28;20188;-72
2021/07/25 06:56:47;;;;;;;23.67;17.38;;;23.00;99.90;;;;;;4970423;28;20189;-72
2021/07/25 06:59:13;;;;;;;21.17;17.60;;;23.20;99.90;;;;;;4970090;28;20197;-72
2021/07/25 07:01:38;;;;;;;24.13;18.87;;;23.20;99.90;;;;;;4970302;28;20189;-72
2021/07/25 07:04:04;;;;;;;25.90;19.57;;;23.10;99.90;;;;;;4968943;28;20216;-73
2021/07/25 07:06:29;;;;;;;24.07;18.67;;;23.20;99.90;;;;;;4986655;28;20198;-74
2021/07/25 07:08:55;;;;;;;25.20;20.33;;;23.40;99.90;;;;;;4953958;28;20228;-75
2021/07/25 07:11:26;;;;;;;27.07;20.47;;;23.40;99.90;;;;;;4955466;28;20174;-75
2021/07/25 07:13:54;;;;;;;26.37;20.63;;;23.40;99.90;;;;;;4954398;29;20181;-76
2021/07/25 07:16:20;;;;;;;25.73;21.37;;;23.40;99.90;;;;;;4971220;28;20205;-77
2021/07/25 07:18:45;;;;;;;28.70;21.43;;;23.30;99.90;;;;;;4989292;28;20272;-75
2021/07/25 07:21:11;;;;;;;24.43;21.73;;;23.20;99.90;;;;;;4973459;28;20191;-75
2021/07/25 07:23:36;;;;;;;27.60;22.03;;;22.90;99.90;;;;;;4973413;28;20295;-76
2021/07/25 07:26:02;;;;;;;26.60;22.07;;;22.70;99.90;;;;;;4973617;28;20243;-76
2021/07/25 07:28:28;;;;;;;24.23;21.23;;;22.40;99.90;;;;;;4974617;28;20235;-76
2021/07/25 07:30:53;;;;;;;27.70;24.53;;;22.30;99.90;;;;;;4984851;28;20177;-75
2021/07/25 07:33:20;;;;;;;28.60;25.20;;;22.10;99.90;;;;;;4958679;28;20204;-76
2021/07/25 07:35:46;;;;;;;29.73;24.97;;;22.00;99.90;;;;;;4974253;28;20209;-75
2021/07/25 07:38:12;;;;;;;29.43;25.80;;;22.10;99.90;;;;;;4957008;28;20235;-72
2021/07/25 07:40:38;;;;;;;28.33;23.93;;;22.30;99.90;;;;;;4972399;28;20740;-72
2021/07/25 07:43:06;;;;;;;27.10;24.17;;;22.40;99.90;;;;;;4953175;28;20209;-73
2021/07/25 07:45:32;;;;;;;28.10;22.30;;;22.40;99.90;;;;;;4972815;28;20582;-75
2021/07/25 07:47:57;;;;;;;27.13;22.67;;;22.30;99.90;;;;;;4956538;28;20275;-77
2021/07/25 07:50:23;;;;;;;26.67;22.77;;;21.90;99.90;;;;;;4972370;28;20185;-76
2021/07/25 07:52:49;;;;;;;27.63;23.57;;;21.70;99.90;;;;;;4956437;28;20269;-75
2021/07/25 07:55:14;;;;;;;26.97;23.47;;;21.70;99.90;;;;;;4973836;28;20689;-74
2021/07/25 07:57:40;;;;;;;30.50;24.93;;;21.80;99.90;;;;;;4972668;28;20189;-74
2021/07/25 08:00:07;;;;;;;32.80;26.93;;;21.70;99.90;;;;;;4957126;28;20177;-75
2021/07/25 08:02:33;;;;;;;29.97;25.60;;;21.60;99.90;;;;;;4958503;28;20228;-76
2021/07/25 08:04:58;;;;;;;27.30;23.87;;;21.70;99.90;;;;;;4973296;28;20607;-76
2021/07/25 08:07:24;;;;;;;26.27;21.27;;;21.80;99.90;;;;;;4958406;28;20185;-76
2021/07/25 08:09:50;;;;;;;24.30;19.03;;;22.00;99.90;;;;;;4959428;28;20169;-76
2021/07/25 08:12:15;;;;;;;22.67;19.67;;;21.90;99.90;;;;;;4972557;28;20260;-75
2021/07/25 08:14:41;;;;;;;21.73;18.50;;;21.90;99.90;;;;;;4972304;28;20227;-76
2021/07/25 08:17:06;;;;;;;22.37;18.83;;;22.00;99.90;;;;;;4957893;28;20189;-78
2021/07/25 08:19:32;;;;;;;23.97;19.77;;;21.90;99.90;;;;;;4958462;28;20741;-79
2021/07/25 08:21:57;;;;;;;22.93;19.07;;;21.90;99.90;;;;;;4953182;28;20221;-78
2021/07/25 08:24:23;;;;;;;22.53;17.67;;;22.00;99.90;;;;;;4941234;29;20250;-78
2021/07/25 08:26:50;;;;;;;21.03;18.73;;;22.00;99.90;;;;;;4958284;28;20213;-77
2021/07/25 08:29:15;;;;;;;20.47;18.27;;;22.00;99.90;;;;;;4957748;28;20200;-77
2021/07/25 08:31:41;;;;;;;19.67;16.97;;;22.20;99.90;;;;;;4959766;28;20177;-79
2021/07/25 08:34:06;;;;;;;18.63;15.63;;;21.90;99.90;;;;;;4957285;28;20185;-78
2021/07/25 08:36:32;;;;;;;18.77;14.93;;;21.80;99.90;;;;;;4973719;28;20208;-78
2021/07/25 08:38:57;;;;;;;18.77;15.17;;;21.70;99.90;;;;;;4972630;28;20185;-77
2021/07/25 08:41:41;;;;;;;16.53;13.83;;;21.80;99.90;;;;;;4972202;28;20191;-76
2021/07/25 08:44:24;;;;;;;17.53;14.83;;;22.00;99.90;;;;;;4973304;28;20269;-76
2021/07/25 08:46:54;;;;;;;16.63;13.53;;;22.10;99.90;;;;;;4973776;28;20173;-76
2021/07/25 08:49:20;;;;;;;18.40;13.53;;;22.30;99.90;;;;;;4956412;28;20170;-76
2021/07/25 08:51:51;;;;;;;15.63;13.43;;;22.20;99.90;;;;;;4956529;28;20221;-80
2021/07/25 08:54:17;;;;;;;16.40;12.87;;;22.20;99.90;;;;;;4974926;28;20640;-77
2021/07/25 08:56:42;;;;;;;16.20;12.73;;;22.30;99.90;;;;;;4968518;28;20212;-77
2021/07/25 08:59:08;;;;;;;16.57;13.57;;;22.40;99.90;;;;;;4955747;28;20220;-77
2021/07/25 09:01:38;;;;;;;16.30;12.67;;;22.40;99.90;;;;;;4971956;28;20181;-77
2021/07/25 09:04:04;;;;;;;14.77;13.23;;;22.60;99.90;;;;;;4955652;28;20227;-77
2021/07/25 09:06:49;;;;;;;14.30;12.80;;;22.60;99.90;;;;;;4971998;28;20246;-77
2021/07/25 09:09:15;;;;;;;15.20;12.43;;;22.90;99.90;;;;;;4957296;28;20207;-77
2021/07/25 09:11:41;;;;;;;13.97;10.77;;;22.90;99.90;;;;;;4958832;28;20169;-78
2021/07/25 09:14:06;;;;;;;12.07;10.77;;;22.80;99.90;;;;;;4960897;28;20219;-77
2021/07/25 09:16:34;;;;;;;13.17;10.27;;;22.80;99.90;;;;;;4960254;28;20268;-77
2021/07/25 09:18:59;;;;;;;14.80;10.60;;;22.90;99.90;;;;;;4957121;28;20235;-78
2021/07/25 09:21:44;;;;;;;14.20;10.13;;;23.10;99.90;;;;;;4957382;28;20185;-77
2021/07/25 09:24:27;;;;;;;12.63;10.30;;;23.30;99.90;;;;;;4971718;28;20355;-78
2021/07/25 09:26:56;;;;;;;14.63;11.50;;;23.20;99.90;;;;;;4952688;28;20687;-78
2021/07/25 09:29:24;;;;;;;13.13;11.33;;;23.30;99.90;;;;;;4974976;28;20714;-77
2021/07/25 09:31:50;;;;;;;14.20;10.10;;;23.30;99.90;;;;;;4976065;28;20173;-78
2021/07/25 09:34:39;;;;;;;20.63;14.87;;;23.50;99.90;;;;;;4959339;28;20188;-78
2021/07/25 09:37:15;;;;;;;12.30;7.83;;;23.70;99.90;;;;;;4960311;28;20162;-77
2021/07/25 09:39:42;;;;;;;9.02;7.93;;;24.20;99.90;;;;;;4958826;28;20627;-77
2021/07/25 09:42:08;;;;;;;13.43;8.40;;;24.40;99.90;;;;;;4974858;28;20293;-75
2021/07/25 09:44:50;;;;;;;10.07;8.50;;;24.40;99.90;;;;;;4974609;28;20204;-76
2021/07/25 09:47:29;;;;;;;10.93;7.75;;;24.40;99.90;;;;;;4974823;28;20231;-76
2021/07/25 09:49:56;;;;;;;10.25;7.22;;;24.40;99.90;;;;;;4974687;28;20165;-76
2021/07/25 09:52:35;;;;;;;11.27;6.93;;;24.30;99.90;;;;;;4974789;28;20227;-76
2021/07/25 09:55:01;;;;;;;12.05;8.57;;;24.50;99.90;;;;;;4990101;28;20201;-73
2021/07/25 09:57:28;;;;;;;8.35;6.55;;;24.30;99.90;;;;;;4973684;28;20181;-72
2021/07/25 09:59:54;;;;;;;8.82;7.15;;;24.40;99.90;;;;;;4996644;28;20192;-78
2021/07/25 10:02:33;;;;;;;8.57;6.28;;;24.20;99.90;;;;;;4955258;29;20173;-74
2021/07/25 10:05:18;;;;;;;7.50;6.35;;;24.20;99.90;;;;;;4971327;28;20704;-74
2021/07/25 10:07:47;;;;;;;7.47;6.68;;;24.20;99.90;;;;;;4970883;28;20173;-75
2021/07/25 10:10:17;;;;;;;7.75;6.30;;;24.40;99.90;;;;;;4971113;28;20597;-75
2021/07/25 10:12:44;;;;;;;9.43;7.05;;;24.40;99.90;;;;;;4956273;28;20169;-74
2021/07/25 10:15:11;;;;;;;9.60;7.00;;;24.30;99.90;;;;;;4956190;28;20716;-74
2021/07/25 10:17:38;;;;;;;8.52;6.50;;;24.40;99.90;;;;;;4970971;28;20174;-75
2021/07/25 10:20:05;;;;;;;12.45;6.00;;;24.50;99.90;;;;;;4954851;29;20210;-73
2021/07/25 10:22:32;;;;;;;7.90;5.38;;;24.40;99.90;;;;;;4954769;28;20611;-74
2021/07/25 10:24:59;;;;;;;8.43;5.47;;;24.40;99.90;;;;;;4954677;29;20305;-75
2021/07/25 10:27:25;;;;;;;8.00;5.43;;;24.50;99.90;;;;;;4954984;29;20197;-76
2021/07/25 10:29:52;;;;;;;6.63;5.47;;;24.80;99.90;;;;;;4970851;28;20645;-75
2021/07/25 10:32:19;;;;;;;5.88;5.20;;;24.80;99.90;;;;;;4970845;28;20173;-75
2021/07/25 10:34:45;;;;;;;5.28;4.50;;;24.90;99.90;;;;;;4971152;28;20224;-75
2021/07/25 10:37:11;;;;;;;5.63;4.35;;;25.00;99.90;;;;;;4954561;28;20262;-75
2021/07/25 10:39:37;;;;;;;5.82;4.10;;;24.90;99.90;;;;;;4955735;28;20256;-76
2021/07/25 10:42:03;;;;;;;6.55;4.50;;;24.80;99.90;;;;;;4954528;28;20732;-75
2021/07/25 10:44:29;;;;;;;5.95;4.82;;;25.00;99.90;;;;;;4970267;28;20292;-75
2021/07/25 10:47:18;;;;;;;6.10;4.97;;;25.10;99.90;;;;;;4970402;28;20177;-75
2021/07/25 10:49:44;;;;;;;6.63;4.13;;;24.90;99.90;;;;;;4953984;28;20188;-75
2021/07/25 10:52:09;;;;;;;5.95;4.30;;;25.00;99.90;;;;;;4955529;28;20252;-75
2021/07/25 10:54:45;;;;;;;5.68;4.18;;;25.00;99.90;;;;;;4970459;28;20237;-75
2021/07/25 10:57:10;;;;;;;6.22;3.80;;;25.00;99.90;;;;;;4954396;29;20161;-73
2021/07/25 10:59:40;;;;;;;6.68;4.00;;;25.10;99.90;;;;;;4953893;29;20184;-73
2021/07/25 11:02:29;;;;;;;5.18;3.85;;;25.20;99.90;;;;;;4954039;28;20212;-74
2021/07/25 11:04:55;;;;;;;7.97;3.67;;;25.40;99.90;;;;;;4957650;28;20716;-74
2021/07/25 11:07:23;;;;;;;8.18;4.00;;;25.40;99.90;;;;;;4955126;28;20181;-74
2021/07/25 11:10:03;;;;;;;6.10;3.95;;;25.50;99.90;;;;;;4955042;28;20182;-73
2021/07/25 11:12:47;;;;;;;6.10;4.10;;;25.50;99.90;;;;;;4954242;29;20181;-78
2021/07/25 11:15:28;;;;;;;6.20;4.13;;;25.80;99.90;;;;;;4974281;28;20193;-78
2021/07/25 11:17:54;;;;;;;6.10;3.78;;;25.70;99.90;;;;;;5001174;28;20189;-79
2021/07/25 11:20:54;;;;;;;7.88;3.63;;;25.70;99.90;;;;;;4956165;28;20614;-79
2021/07/25 11:23:19;;;;;;;7.15;3.17;;;25.70;99.90;;;;;;4953962;28;20209;-76
2021/07/25 11:25:45;;;;;;;5.88;3.40;;;25.70;99.90;;;;;;4952308;28;20198;-78
2021/07/25 11:28:11;;;;;;;6.85;3.45;;;25.70;99.90;;;;;;4953520;29;20181;-78
2021/07/25 11:31:00;;;;;;;7.35;3.40;;;25.70;99.90;;;;;;4955205;28;20177;-79
2021/07/25 11:33:43;;;;;;;4.97;2.88;;;25.90;99.90;;;;;;4993003;28;20199;-76
2021/07/25 11:36:09;;;;;;;4.35;3.08;;;26.00;99.90;;;;;;4954835;29;20265;-77
2021/07/25 11:38:35;;;;;;;3.95;3.13;;;26.20;99.90;;;;;;4968864;28;20182;-77
2021/07/25 11:41:02;;;;;;;4.43;3.20;;;26.20;99.90;;;;;;4985499;28;20688;-77
2021/07/25 11:44:05;;;;;;;6.35;3.45;;;26.30;99.90;;;;;;4985654;28;20213;-76
2021/07/25 11:46:34;;;;;;;6.97;3.47;;;26.30;99.90;;;;;;4967650;28;20205;-76
2021/07/25 11:49:06;;;;;;;4.53;3.17;;;26.00;99.90;;;;;;4957020;28;20287;-77
2021/07/25 11:51:33;;;;;;;7.28;3.65;;;26.20;99.90;;;;;;4987561;28;20173;-77
2021/07/25 11:53:58;;;;;;;4.53;3.25;;;26.20;99.90;;;;;;4977805;28;20185;-75
2021/07/25 11:56:24;;;;;;;4.47;3.25;;;26.30;99.90;;;;;;4953119;28;20580;-77
2021/07/25 11:59:02;;;;;;;5.60;3.40;;;26.40;99.90;;;;;;4986077;28;20561;-77
2021/07/25 12:01:28;;;;;;;3.05;2.75;;;26.50;99.90;;;;;;4988795;28;20177;-77
2021/07/25 12:03:53;;;;;;;4.28;2.97;;;26.40;99.90;;;;;;4956851;28;20719;-75
2021/07/25 12:06:19;;;;;;;3.95;3.00;;;26.30;99.90;;;;;;4971307;28;20691;-75
2021/07/25 12:09:04;;;;;;;5.35;3.15;;;26.30;99.90;;;;;;4967198;28;20561;-75
2021/07/25 12:11:29;;;;;;;4.55;3.15;;;26.20;99.90;;;;;;4988741;28;20586;-75
2021/07/25 12:13:55;;;;;;;4.28;3.28;;;26.20;99.90;;;;;;4988408;28;20176;-75
2021/07/25 12:16:20;;;;;;;5.45;3.38;;;26.10;99.90;;;;;;4989035;28;20227;-75
2021/07/25 12:18:46;;;;;;;4.22;3.03;;;26.20;99.90;;;;;;4953443;28;20181;-74
2021/07/25 12:21:31;;;;;;;4.07;2.72;;;26.40;99.90;;;;;;4944138;28;20224;-75
2021/07/25 12:24:00;;;;;;;6.70;3.03;;;26.50;99.90;;;;;;4985567;28;20228;-76
2021/07/25 12:26:39;;;;;;;6.53;3.17;;;26.60;99.90;;;;;;4985747;28;20197;-75
2021/07/25 12:29:42;;;;;;;5.05;3.13;;;26.70;99.90;;;;;;4985119;28;20205;-75
2021/07/25 12:32:21;;;;;;;4.18;2.80;;;26.90;99.90;;;;;;4973124;28;20173;-75
2021/07/25 12:34:46;;;;;;;7.72;3.08;;;26.80;99.90;;;;;;4977843;28;20188;-75
2021/07/25 12:37:29;;;;;;;3.58;2.65;;;27.10;99.90;;;;;;4973344;28;20303;-76